createdAt,value
2019-04-23T00:03:54.859Z,42.00
2019-04-23T00:06:47.572Z,42.16
2019-04-23T00:09:07.305Z,42.56
2019-04-23T00:11:33.433Z,43.26
2019-04-23T00:14:15.197Z,44.07
2019-04-23T00:16:45.947Z,44.33
2019-04-23T00:19:16.953Z,44.89
2019-04-23T00:21:52.100Z,47.33
2019-04-23T00:25:11.750Z,49.18
2019-04-23T00:29:56.577Z,48.68
2019-04-23T00:35:01.091Z,49.62
2019-04-23T00:40:11.383Z,50.77
2019-04-23T00:42:38.410Z,51.22
2019-04-23T00:45:00.288Z,51.84
2019-04-23T00:47:38.313Z,52.62
2019-04-23T00:50:15.983Z,53.96
2019-04-23T00:52:40.064Z,54.11
2019-04-23T00:55:15.946Z,54.60
2019-04-23T00:57:50.141Z,54.71
2019-04-23T01:00:29.582Z,54.87
2019-04-23T01:02:53.366Z,55.02
2019-04-23T01:05:24.939Z,54.90
2019-04-23T01:08:01.930Z,55.08
2019-04-23T01:10:52.342Z,55.07
2019-04-23T01:13:22.947Z,55.62
2019-04-23T01:15:54.256Z,54.62
2019-04-23T01:18:49.120Z,55.40
2019-04-23T01:20:53.923Z,58.13
2019-04-23T01:23:37.752Z,57.22
2019-04-23T01:26:21.241Z,56.71
2019-04-23T01:29:05.314Z,56.19
2019-04-23T01:31:47.602Z,55.38
2019-04-23T01:34:08.857Z,53.17
2019-04-23T01:36:33.263Z,53.42
2019-04-23T01:41:44.829Z,52.90
2019-04-23T01:44:15.674Z,54.41
2019-04-23T01:46:49.416Z,53.74
2019-04-23T01:49:25.039Z,50.83
2019-04-23T01:51:54.610Z,49.90
2019-04-23T01:54:25.947Z,50.85
2019-04-23T01:56:56.766Z,48.71
2019-04-23T01:59:31.808Z,49.74
2019-04-23T02:02:08.703Z,49.24
2019-04-23T02:04:36.557Z,48.53
2019-04-23T02:07:15.520Z,47.40
2019-04-23T02:09:41.973Z,48.29
2019-04-23T02:12:11.228Z,48.66
2019-04-23T02:14:50.171Z,50.06
2019-04-23T02:17:25.447Z,51.15
2019-04-23T02:19:52.503Z,51.32
2019-04-23T02:22:51.883Z,51.63
2019-04-23T02:25:25.125Z,51.65
2019-04-23T02:27:52.171Z,52.08
2019-04-23T02:30:40.241Z,52.65
2019-04-23T02:33:12.530Z,53.21
2019-04-23T02:35:46.381Z,53.64
2019-04-23T02:40:49.583Z,54.71
2019-04-23T02:45:52.142Z,56.26
2019-04-23T02:48:19.433Z,56.90
2019-04-23T02:50:57.828Z,57.17
2019-04-23T03:01:18.341Z,57.22
2019-04-23T03:03:36.870Z,57.80
2019-04-23T03:06:14.505Z,58.55
2019-04-23T03:08:46.314Z,58.02
2019-04-23T03:18:51.638Z,52.95
2019-04-23T03:24:11.208Z,51.12
2019-04-23T03:27:10.337Z,50.35
2019-04-23T03:35:10.309Z,47.55
2019-04-23T03:39:52.126Z,47.59
2019-04-23T03:47:18.651Z,47.88
2019-04-23T03:49:46.451Z,49.16
2019-04-23T03:52:27.819Z,51.03
2019-04-23T03:54:45.642Z,51.14
2019-04-23T04:00:22.867Z,51.71
2019-04-23T04:04:49.790Z,50.58
2019-04-23T04:12:37.720Z,45.04
2019-04-23T04:15:18.280Z,44.43
2019-04-23T04:17:54.849Z,42.44
2019-04-23T04:20:17.845Z,40.49
2019-04-23T04:23:04.246Z,40.82
2019-04-23T04:28:08.021Z,40.97
2019-04-23T04:30:27.685Z,38.34
2019-04-23T04:33:23.668Z,36.73
2019-04-23T04:35:22.809Z,35.16
2019-04-23T04:38:18.110Z,34.25
2019-04-23T04:43:16.084Z,32.55
2019-04-23T04:45:49.892Z,31.65
2019-04-23T04:48:14.094Z,31.85
2019-04-23T04:50:49.188Z,31.13
2019-04-23T04:53:33.515Z,30.63
2019-04-23T04:55:55.478Z,30.21
2019-04-23T04:58:23.580Z,29.54
2019-04-23T05:03:26.663Z,27.93
2019-04-23T05:08:39.700Z,26.88
2019-04-23T05:11:11.739Z,25.89
2019-04-23T05:16:06.149Z,25.67
2019-04-23T05:21:14.098Z,25.04
2019-04-23T05:23:45.888Z,25.04
2019-04-23T05:26:22.388Z,25.45
2019-04-23T05:31:23.633Z,24.99
2019-04-23T05:34:01.057Z,24.72
2019-04-23T05:36:43.415Z,24.61
2019-04-23T05:41:33.729Z,23.66
2019-04-23T05:44:02.017Z,24.04
2019-04-23T05:46:45.422Z,22.98
2019-04-23T05:49:07.653Z,22.49
2019-04-23T05:51:48.949Z,22.23
2019-04-23T05:54:12.904Z,21.42
2019-04-23T05:56:58.466Z,21.16
2019-04-23T06:04:24.504Z,20.52
2019-04-23T06:09:26.474Z,20.51
2019-04-23T06:12:06.081Z,20.57
2019-04-23T06:14:32.898Z,20.54
2019-04-23T06:17:03.957Z,19.73
2019-04-23T06:19:24.619Z,20.49
2019-04-23T06:27:13.406Z,20.56
2019-04-23T06:29:59.477Z,20.34
2019-04-23T06:32:14.360Z,19.71
2019-04-23T06:34:50.091Z,19.05
2019-04-23T06:37:28.090Z,18.95
2019-04-23T06:39:57.039Z,18.58
2019-04-23T06:42:32.564Z,18.28
2019-04-23T06:44:57.925Z,19.44
2019-04-23T06:47:27.827Z,19.17
2019-04-23T06:49:58.201Z,18.88
2019-04-23T06:52:50.147Z,18.94
2019-04-23T06:55:12.284Z,18.82
2019-04-23T06:57:38.414Z,18.32
2019-04-23T07:00:24.050Z,18.27
2019-04-23T07:02:49.472Z,17.77
2019-04-23T07:05:27.218Z,17.57
2019-04-23T07:07:50.271Z,17.47
2019-04-23T07:10:26.649Z,17.87
2019-04-23T07:12:56.274Z,17.82
2019-04-23T07:15:50.107Z,17.36
2019-04-23T07:17:57.360Z,16.70
2019-04-23T07:20:34.610Z,16.26
2019-04-23T07:23:14.160Z,16.01
2019-04-23T07:25:45.743Z,15.38
2019-04-23T07:28:13.235Z,15.16
2019-04-23T07:30:55.899Z,15.51
2019-04-23T07:33:18.875Z,13.34
2019-04-23T07:35:52.230Z,13.65
2019-04-23T07:38:48.085Z,13.80
2019-04-23T07:41:45.930Z,14.06
2019-04-23T07:44:24.888Z,16.03
2019-04-23T07:49:30.890Z,17.92
2019-04-23T07:52:06.663Z,17.03
2019-04-23T07:54:42.193Z,16.21
2019-04-23T07:57:12.149Z,15.54
2019-04-23T07:59:47.361Z,15.73
2019-04-23T08:02:15.932Z,15.05
2019-04-23T08:04:57.460Z,15.39
2019-04-23T08:07:18.210Z,16.61
2019-04-23T08:09:47.756Z,18.94
2019-04-23T08:14:53.488Z,21.24
2019-04-23T08:17:26.231Z,22.58
2019-04-23T08:22:37.361Z,23.50
2019-04-23T08:27:45.213Z,24.02
2019-04-23T08:30:09.761Z,24.44
2019-04-23T08:32:53.916Z,25.05
2019-04-23T08:35:23.145Z,24.42
2019-04-23T08:40:28.438Z,25.45
2019-04-23T08:45:29.905Z,25.10
2019-04-23T08:50:44.080Z,25.46
2019-04-23T08:53:31.276Z,25.50
2019-04-23T08:58:31.664Z,25.89
2019-04-23T09:01:05.657Z,25.57
2019-04-23T09:08:38.954Z,23.93
2019-04-23T09:11:30.098Z,23.88
2019-04-23T09:16:22.149Z,22.94
2019-04-23T09:19:02.823Z,22.00
2019-04-23T09:21:30.963Z,22.65
2019-04-23T09:23:59.046Z,22.65
2019-04-23T09:26:33.117Z,23.13
2019-04-23T09:29:17.302Z,23.00
2019-04-23T09:32:07.741Z,23.84
2019-04-23T09:34:18.569Z,23.84
2019-04-23T09:39:49.949Z,24.08
2019-04-23T09:42:49.390Z,22.57
2019-04-23T09:45:28.098Z,22.75
2019-04-23T09:48:06.719Z,23.33
2019-04-23T09:50:38.259Z,23.62
2019-04-23T09:55:37.433Z,22.14
2019-04-23T09:58:11.639Z,22.14
2019-04-23T10:01:02.010Z,22.14
2019-04-23T10:03:12.413Z,22.32
2019-04-23T10:05:39.953Z,22.32
2019-04-23T10:08:15.261Z,22.24
2019-04-23T10:10:38.406Z,22.26
2019-04-23T10:13:11.526Z,22.41
2019-04-23T10:15:47.696Z,22.38
2019-04-23T10:18:18.316Z,22.24
2019-04-23T10:20:50.074Z,22.24
2019-04-23T10:23:23.198Z,21.93
2019-04-23T10:25:56.270Z,22.10
2019-04-23T10:28:33.803Z,22.32
2019-04-23T10:31:07.143Z,22.11
2019-04-23T10:33:39.944Z,22.79
2019-04-23T10:36:15.792Z,22.35
2019-04-23T10:38:51.299Z,22.51
2019-04-23T10:41:20.109Z,23.27
2019-04-23T10:43:54.971Z,22.43
2019-04-23T10:46:49.418Z,22.31
2019-04-23T10:54:40.900Z,22.18
2019-04-23T10:59:48.981Z,21.63
2019-04-23T11:04:57.810Z,21.84
2019-04-23T11:10:07.231Z,21.92
2019-04-23T11:13:07.827Z,22.17
2019-04-23T11:15:36.295Z,22.29
2019-04-23T11:22:54.901Z,21.98
2019-04-23T11:28:13.626Z,21.85
2019-04-23T11:33:34.124Z,22.17
2019-04-23T11:38:13.740Z,21.85
2019-04-23T11:41:20.741Z,22.56
2019-04-23T11:43:37.783Z,22.18
2019-04-23T11:46:32.323Z,21.55
2019-04-23T11:49:01.830Z,22.14
2019-04-23T11:54:07.303Z,22.39
2019-04-23T11:56:51.477Z,22.83
2019-04-23T11:59:13.462Z,21.81
2019-04-23T12:01:49.907Z,21.87
2019-04-23T12:09:40.145Z,21.50
2019-04-23T12:12:23.509Z,22.05
2019-04-23T12:22:29.802Z,22.53
2019-04-23T12:27:31.466Z,22.54
2019-04-23T12:30:32.438Z,22.61
2019-04-23T12:35:19.278Z,22.53
2019-04-23T12:37:45.017Z,21.93
2019-04-23T12:40:25.139Z,21.92
2019-04-23T12:43:06.990Z,22.16
2019-04-23T12:48:16.215Z,21.67
2019-04-23T12:50:48.785Z,21.29
2019-04-23T13:00:54.511Z,21.79
2019-04-23T13:03:29.907Z,22.17
2019-04-23T13:05:59.325Z,21.99
2019-04-23T13:11:15.333Z,22.32
2019-04-23T13:13:45.899Z,22.02
2019-04-23T13:16:28.067Z,21.61
2019-04-23T13:18:49.591Z,21.91
2019-04-23T13:21:46.734Z,21.45
2019-04-23T13:24:18.751Z,21.81
2019-04-23T13:26:57.355Z,21.69
2019-04-23T13:29:43.233Z,21.95
2019-04-23T13:31:58.236Z,21.96
2019-04-23T13:34:42.831Z,21.67
2019-04-23T13:37:12.031Z,21.74
2019-04-23T13:39:39.726Z,21.88
2019-04-23T13:42:25.152Z,21.95
2019-04-23T13:44:48.396Z,21.80
2019-04-23T13:47:36.768Z,21.62
2019-04-23T13:49:57.206Z,21.26
2019-04-23T13:53:03.051Z,21.27
2019-04-23T13:58:00.120Z,21.54
2019-04-23T14:00:09.025Z,21.73
2019-04-23T14:02:43.900Z,21.87
2019-04-23T14:05:24.045Z,21.97
2019-04-23T14:07:56.535Z,22.48
2019-04-23T14:10:39.726Z,22.47
2019-04-23T14:13:23.667Z,23.07
2019-04-23T14:15:55.488Z,23.09
2019-04-23T14:18:36.123Z,23.18
2019-04-23T14:20:42.066Z,23.13
2019-04-23T14:26:05.266Z,22.10
2019-04-23T14:28:28.468Z,22.97
2019-04-23T14:33:38.313Z,22.60
2019-04-23T14:36:19.392Z,22.54
2019-04-23T14:38:41.677Z,22.55
2019-04-23T14:41:21.743Z,22.68
2019-04-23T14:43:57.936Z,22.69
2019-04-23T14:48:59.798Z,23.19
2019-04-23T14:51:46.716Z,23.61
2019-04-23T14:54:09.409Z,23.51
2019-04-23T14:56:39.085Z,24.51
2019-04-23T14:59:07.126Z,24.33
2019-04-23T15:01:42.810Z,24.95
2019-04-23T15:04:19.275Z,24.82
2019-04-23T15:12:11.865Z,25.46
2019-04-23T15:14:46.153Z,25.09
2019-04-23T15:17:13.175Z,24.82
2019-04-23T15:20:04.819Z,24.99
2019-04-23T15:22:32.986Z,24.71
2019-04-23T15:25:19.354Z,24.78
2019-04-23T15:30:04.176Z,24.79
2019-04-23T15:32:56.652Z,24.60
2019-04-23T15:35:29.515Z,24.59
2019-04-23T15:38:30.650Z,24.32
2019-04-23T15:40:28.421Z,24.36
2019-04-23T15:43:05.915Z,23.98
2019-04-23T15:45:41.602Z,24.37
2019-04-23T15:48:11.611Z,24.47
2019-04-23T15:50:43.628Z,24.61
2019-04-23T15:53:14.388Z,24.80
2019-04-23T15:55:55.446Z,24.94
2019-04-23T15:58:33.300Z,24.83
2019-04-23T16:01:21.407Z,25.16
2019-04-23T16:03:24.244Z,25.02
2019-04-23T16:05:55.332Z,25.29
2019-04-23T16:11:39.480Z,25.54
2019-04-23T16:14:17.054Z,26.06
2019-04-23T16:19:24.506Z,25.97
2019-04-23T16:22:08.467Z,26.49
2019-04-23T16:24:26.619Z,26.67
2019-04-23T16:27:11.163Z,26.87
2019-04-23T16:29:54.088Z,26.96
2019-04-23T16:34:54.150Z,27.14
2019-04-23T16:37:27.204Z,27.37
2019-04-23T16:40:10.378Z,27.19
2019-04-23T16:42:38.232Z,27.29
2019-04-23T16:45:14.850Z,27.61
2019-04-23T16:47:49.007Z,27.87
2019-04-23T16:50:19.429Z,27.67
2019-04-23T16:53:04.922Z,27.95
2019-04-23T16:55:29.064Z,27.83
2019-04-23T16:58:15.611Z,27.92
2019-04-23T17:00:43.817Z,28.09
2019-04-23T17:03:23.039Z,28.33
2019-04-23T17:05:52.917Z,28.30
2019-04-23T17:11:13.036Z,28.51
2019-04-23T17:13:24.180Z,28.50
2019-04-23T17:16:16.752Z,28.55
2019-04-23T17:18:31.939Z,28.77
2019-04-23T17:21:01.986Z,28.85
2019-04-23T17:24:02.947Z,29.47
2019-04-23T17:28:44.498Z,29.90
2019-04-23T17:31:32.351Z,30.19
2019-04-23T17:33:58.912Z,30.48
2019-04-23T17:39:07.820Z,31.42
2019-04-23T17:41:49.989Z,31.56
2019-04-23T17:46:54.069Z,31.84
2019-04-23T17:49:30.044Z,32.27
2019-04-23T17:52:05.109Z,32.10
2019-04-23T17:54:34.420Z,32.19
2019-04-23T18:00:04.886Z,32.68
2019-04-23T18:05:06.256Z,32.76
2019-04-23T18:07:43.811Z,32.90
2019-04-23T18:12:43.522Z,32.86
2019-04-23T18:15:09.569Z,32.93
2019-04-23T18:17:49.522Z,32.91
2019-04-23T18:20:37.963Z,32.76
2019-04-23T18:23:10.091Z,32.93
2019-04-23T18:25:58.052Z,33.09
2019-04-23T18:28:33.543Z,33.32
2019-04-23T18:31:10.626Z,33.30
2019-04-23T18:36:12.943Z,33.55
2019-04-23T18:38:59.793Z,34.11
2019-04-23T18:41:24.083Z,35.58
2019-04-23T18:44:05.797Z,36.48
2019-04-23T18:46:37.301Z,37.72
2019-04-23T18:49:13.520Z,38.01
2019-04-23T18:51:41.741Z,38.48
2019-04-23T18:54:14.823Z,39.23
2019-04-23T18:57:03.364Z,39.62
2019-04-23T18:59:30.479Z,40.16
2019-04-23T19:02:09.570Z,40.44
2019-04-23T19:07:42.370Z,40.91
2019-04-23T19:13:03.843Z,41.77
2019-04-23T19:15:37.288Z,42.52
2019-04-23T19:20:51.759Z,42.83
2019-04-23T19:23:16.041Z,43.15
2019-04-23T19:25:51.715Z,43.56
2019-04-23T19:28:34.602Z,43.61
2019-04-23T19:31:07.354Z,43.15
2019-04-23T19:33:47.904Z,43.03
2019-04-23T19:36:17.260Z,42.58
2019-04-23T19:38:54.270Z,42.31
2019-04-23T19:41:25.662Z,41.50
2019-04-23T19:43:59.469Z,40.85
2019-04-23T19:46:41.579Z,40.56
2019-04-23T20:04:41.165Z,39.53
2019-04-23T20:09:50.776Z,39.97
2019-04-23T20:12:25.928Z,39.98
2019-04-23T20:14:52.071Z,39.93
2019-04-23T20:17:39.859Z,39.61
2019-04-23T20:19:54.898Z,39.72
2019-04-23T20:22:41.744Z,39.62
2019-04-23T20:25:34.744Z,39.92
2019-04-23T20:31:58.247Z,40.20
2019-04-23T20:35:59.911Z,39.71
2019-04-23T20:38:33.328Z,39.61
2019-04-23T20:41:03.962Z,39.89
2019-04-23T20:43:46.857Z,39.90
2019-04-23T20:46:10.949Z,39.88
2019-04-23T20:48:48.446Z,40.12
2019-04-23T20:51:14.311Z,40.18
2019-04-23T20:53:57.334Z,40.09
2019-04-23T20:56:26.507Z,39.84
2019-04-23T20:58:59.781Z,39.55
2019-04-23T21:04:00.036Z,39.59
2019-04-23T21:06:47.049Z,39.25
2019-04-23T21:09:27.834Z,39.53
2019-04-23T21:11:58.068Z,39.55
2019-04-23T21:16:56.650Z,39.44
2019-04-23T21:19:34.120Z,39.33
2019-04-23T21:22:09.823Z,39.48
2019-04-23T21:24:44.946Z,39.80
2019-04-23T21:27:21.844Z,40.23
2019-04-23T21:29:57.020Z,40.51
2019-04-23T21:32:29.728Z,40.78
2019-04-23T21:35:05.273Z,41.04
2019-04-23T21:37:49.456Z,41.19
2019-04-23T21:43:10.488Z,41.72
2019-04-23T21:45:53.053Z,41.79
2019-04-23T21:48:28.046Z,41.49
2019-04-23T21:50:58.354Z,41.53
2019-04-23T21:53:24.288Z,41.49
2019-04-23T21:58:36.796Z,40.96
2019-04-23T22:01:19.786Z,40.95
2019-04-23T22:06:33.127Z,41.19
2019-04-23T22:09:10.397Z,41.27
2019-04-23T22:11:48.292Z,41.36
2019-04-23T22:14:13.204Z,41.44
2019-04-23T22:16:50.073Z,41.46
2019-04-23T22:19:19.734Z,41.36
2019-04-23T22:26:44.994Z,41.03
2019-04-23T22:29:26.221Z,41.52
2019-04-23T22:31:53.735Z,41.76
2019-04-23T22:34:42.939Z,41.56
2019-04-23T22:37:19.391Z,41.46
2019-04-23T22:39:46.965Z,40.79
2019-04-23T22:42:26.846Z,40.15
2019-04-23T22:47:28.445Z,39.25
2019-04-23T22:50:10.880Z,39.05
2019-04-23T22:55:07.715Z,38.98
2019-04-23T22:57:56.445Z,38.74
2019-04-23T23:00:14.379Z,38.91
2019-04-23T23:05:56.388Z,38.88
2019-04-23T23:08:17.974Z,39.01
2019-04-23T23:10:53.341Z,38.94
2019-04-23T23:16:02.053Z,39.08
2019-04-23T23:21:07.920Z,39.63
2019-04-23T23:23:40.835Z,40.07
2019-04-23T23:28:44.697Z,41.00
2019-04-23T23:31:22.510Z,41.41
2019-04-23T23:33:55.805Z,41.85
2019-04-23T23:41:35.606Z,43.68
2019-04-23T23:46:46.220Z,42.92
2019-04-23T23:57:13.889Z,41.20
2019-04-23T23:59:41.924Z,40.92
